sensor_id;sensor_type;location;lat;lon;timestamp;P1;durP1;ratioP1;P2;durP2;ratioP2
12567;SDS011;6349;50.904;6.136;2023-04-25T00:01:25;6.77;;;3.07;;
12567;SDS011;6349;50.904;6.136;2023-04-25T00:03:27;4.73;;;3.00;;
12567;SDS011;6349;50.904;6.136;2023-04-25T00:05:30;4.93;;;3.10;;
12567;SDS011;6349;50.904;6.136;2023-04-25T00:07:33;5.03;;;2.83;;
12567;SDS011;6349;50.904;6.136;2023-04-25T00:09:35;4.90;;;3.10;;
12567;SDS011;6349;50.904;6.136;2023-04-25T00:11:37;4.50;;;2.70;;
12567;SDS011;6349;50.904;6.136;2023-04-25T00:13:39;4.63;;;2.57;;
12567;SDS011;6349;50.904;6.136;2023-04-25T00:15:43;5.40;;;3.20;;
12567;SDS011;6349;50.904;6.136;2023-04-25T00:17:45;3.97;;;2.70;;
12567;SDS011;6349;50.904;6.136;2023-04-25T00:19:46;3.53;;;2.67;;
12567;SDS011;6349;50.904;6.136;2023-04-25T00:21:48;5.87;;;3.23;;
12567;SDS011;6349;50.904;6.136;2023-04-25T00:23:52;4.73;;;2.93;;
12567;SDS011;6349;50.904;6.136;2023-04-25T00:25:54;4.00;;;2.47;;
12567;SDS011;6349;50.904;6.136;2023-04-25T00:27:56;6.20;;;3.00;;
12567;SDS011;6349;50.904;6.136;2023-04-25T00:29:57;3.93;;;3.07;;
12567;SDS011;6349;50.904;6.136;2023-04-25T00:31:59;5.10;;;2.90;;
12567;SDS011;6349;50.904;6.136;2023-04-25T00:34:01;5.53;;;3.30;;
12567;SDS011;6349;50.904;6.136;2023-04-25T00:36:03;6.10;;;3.03;;
12567;SDS011;6349;50.904;6.136;2023-04-25T00:38:06;7.23;;;3.10;;
12567;SDS011;6349;50.904;6.136;2023-04-25T00:40:08;6.13;;;3.20;;
12567;SDS011;6349;50.904;6.136;2023-04-25T00:42:10;6.17;;;3.20;;
12567;SDS011;6349;50.904;6.136;2023-04-25T00:44:13;6.37;;;3.40;;
12567;SDS011;6349;50.904;6.136;2023-04-25T00:46:18;5.33;;;3.10;;
12567;SDS011;6349;50.904;6.136;2023-04-25T00:48:22;5.37;;;3.30;;
12567;SDS011;6349;50.904;6.136;2023-04-25T00:50:24;6.97;;;3.90;;
12567;SDS011;6349;50.904;6.136;2023-04-25T00:52:26;4.80;;;3.33;;
12567;SDS011;6349;50.904;6.136;2023-04-25T00:54:28;7.13;;;3.47;;
12567;SDS011;6349;50.904;6.136;2023-04-25T00:56:32;7.83;;;3.60;;
12567;SDS011;6349;50.904;6.136;2023-04-25T00:58:33;6.00;;;4.00;;
12567;SDS011;6349;50.904;6.136;2023-04-25T01:00:36;7.60;;;3.27;;
12567;SDS011;6349;50.904;6.136;2023-04-25T01:02:38;8.10;;;3.30;;
12567;SDS011;6349;50.904;6.136;2023-04-25T01:04:40;8.90;;;3.33;;
12567;SDS011;6349;50.904;6.136;2023-04-25T01:06:42;8.53;;;3.43;;
12567;SDS011;6349;50.904;6.136;2023-04-25T01:08:45;6.20;;;3.00;;
12567;SDS011;6349;50.904;6.136;2023-04-25T01:10:46;7.20;;;3.27;;
12567;SDS011;6349;50.904;6.136;2023-04-25T01:12:48;8.00;;;3.37;;
12567;SDS011;6349;50.904;6.136;2023-04-25T01:14:51;8.17;;;3.80;;
12567;SDS011;6349;50.904;6.136;2023-04-25T01:16:53;5.93;;;3.10;;
12567;SDS011;6349;50.904;6.136;2023-04-25T01:18:55;10.83;;;3.50;;
12567;SDS011;6349;50.904;6.136;2023-04-25T01:21:02;6.17;;;3.07;;
12567;SDS011;6349;50.904;6.136;2023-04-25T01:23:08;8.77;;;3.40;;
12567;SDS011;6349;50.904;6.136;2023-04-25T01:25:11;8.27;;;3.40;;
12567;SDS011;6349;50.904;6.136;2023-04-25T01:27:13;7.13;;;3.33;;
12567;SDS011;6349;50.904;6.136;2023-04-25T01:29:16;9.50;;;3.47;;
12567;SDS011;6349;50.904;6.136;2023-04-25T01:31:18;7.43;;;3.50;;
12567;SDS011;6349;50.904;6.136;2023-04-25T01:33:21;7.13;;;3.43;;
12567;SDS011;6349;50.904;6.136;2023-04-25T01:35:23;5.50;;;3.10;;
12567;SDS011;6349;50.904;6.136;2023-04-25T01:37:26;7.40;;;3.33;;
12567;SDS011;6349;50.904;6.136;2023-04-25T01:39:27;8.30;;;3.33;;
12567;SDS011;6349;50.904;6.136;2023-04-25T01:41:29;7.17;;;3.40;;
12567;SDS011;6349;50.904;6.136;2023-04-25T01:43:31;9.43;;;3.60;;
12567;SDS011;6349;50.904;6.136;2023-04-25T01:45:33;8.03;;;2.93;;
12567;SDS011;6349;50.904;6.136;2023-04-25T01:47:38;6.37;;;3.07;;
12567;SDS011;6349;50.904;6.136;2023-04-25T01:49:44;8.77;;;3.80;;
12567;SDS011;6349;50.904;6.136;2023-04-25T01:51:46;8.47;;;3.73;;
12567;SDS011;6349;50.904;6.136;2023-04-25T01:53:50;7.17;;;3.17;;
12567;SDS011;6349;50.904;6.136;2023-04-25T01:55:52;7.07;;;3.30;;
12567;SDS011;6349;50.904;6.136;2023-04-25T01:57:53;7.87;;;3.40;;
12567;SDS011;6349;50.904;6.136;2023-04-25T01:59:57;6.80;;;3.23;;
12567;SDS011;6349;50.904;6.136;2023-04-25T02:02:00;7.83;;;2.87;;
12567;SDS011;6349;50.904;6.136;2023-04-25T02:04:05;5.63;;;3.17;;
12567;SDS011;6349;50.904;6.136;2023-04-25T02:06:07;6.33;;;3.33;;
12567;SDS011;6349;50.904;6.136;2023-04-25T02:08:08;6.47;;;3.00;;
12567;SDS011;6349;50.904;6.136;2023-04-25T02:10:10;8.73;;;2.90;;
12567;SDS011;6349;50.904;6.136;2023-04-25T02:12:12;7.83;;;3.23;;
12567;SDS011;6349;50.904;6.136;2023-04-25T02:14:14;6.83;;;3.03;;
12567;SDS011;6349;50.904;6.136;2023-04-25T02:16:16;7.47;;;3.10;;
12567;SDS011;6349;50.904;6.136;2023-04-25T02:18:18;5.73;;;3.10;;
12567;SDS011;6349;50.904;6.136;2023-04-25T02:20:22;7.87;;;3.40;;
12567;SDS011;6349;50.904;6.136;2023-04-25T02:22:25;5.73;;;3.27;;
12567;SDS011;6349;50.904;6.136;2023-04-25T02:24:28;8.27;;;3.50;;
12567;SDS011;6349;50.904;6.136;2023-04-25T02:26:29;6.83;;;3.23;;
12567;SDS011;6349;50.904;6.136;2023-04-25T02:28:31;8.13;;;3.67;;
12567;SDS011;6349;50.904;6.136;2023-04-25T02:30:33;7.33;;;3.47;;
12567;SDS011;6349;50.904;6.136;2023-04-25T02:32:36;5.57;;;3.30;;
12567;SDS011;6349;50.904;6.136;2023-04-25T02:34:38;7.77;;;3.07;;
12567;SDS011;6349;50.904;6.136;2023-04-25T02:36:40;8.30;;;3.50;;
12567;SDS011;6349;50.904;6.136;2023-04-25T02:38:42;8.73;;;3.67;;
12567;SDS011;6349;50.904;6.136;2023-04-25T02:40:44;5.40;;;2.83;;
12567;SDS011;6349;50.904;6.136;2023-04-25T02:42:46;9.63;;;3.83;;
12567;SDS011;6349;50.904;6.136;2023-04-25T02:44:49;9.00;;;3.60;;
12567;SDS011;6349;50.904;6.136;2023-04-25T02:46:50;7.23;;;3.50;;
12567;SDS011;6349;50.904;6.136;2023-04-25T02:48:52;7.43;;;3.53;;
12567;SDS011;6349;50.904;6.136;2023-04-25T02:50:54;8.63;;;3.50;;
12567;SDS011;6349;50.904;6.136;2023-04-25T02:52:56;4.90;;;3.07;;
12567;SDS011;6349;50.904;6.136;2023-04-25T02:54:58;6.33;;;3.00;;
12567;SDS011;6349;50.904;6.136;2023-04-25T02:56:59;9.30;;;3.33;;
12567;SDS011;6349;50.904;6.136;2023-04-25T02:59:02;8.17;;;3.80;;
12567;SDS011;6349;50.904;6.136;2023-04-25T03:01:04;6.37;;;3.30;;
12567;SDS011;6349;50.904;6.136;2023-04-25T03:03:06;5.47;;;3.43;;
12567;SDS011;6349;50.904;6.136;2023-04-25T03:05:07;7.67;;;3.43;;
12567;SDS011;6349;50.904;6.136;2023-04-25T03:07:09;8.27;;;3.27;;
12567;SDS011;6349;50.904;6.136;2023-04-25T03:09:11;7.47;;;3.73;;
12567;SDS011;6349;50.904;6.136;2023-04-25T03:11:12;5.27;;;3.33;;
12567;SDS011;6349;50.904;6.136;2023-04-25T03:13:14;7.43;;;3.33;;
12567;SDS011;6349;50.904;6.136;2023-04-25T03:15:16;7.50;;;3.73;;
12567;SDS011;6349;50.904;6.136;2023-04-25T03:17:18;7.60;;;3.33;;
12567;SDS011;6349;50.904;6.136;2023-04-25T03:19:20;10.20;;;3.70;;
12567;SDS011;6349;50.904;6.136;2023-04-25T03:21:22;7.30;;;3.70;;
12567;SDS011;6349;50.904;6.136;2023-04-25T03:23:24;5.37;;;3.30;;
12567;SDS011;6349;50.904;6.136;2023-04-25T03:25:26;6.47;;;3.50;;
12567;SDS011;6349;50.904;6.136;2023-04-25T03:27:28;6.60;;;3.20;;
12567;SDS011;6349;50.904;6.136;2023-04-25T03:29:30;7.03;;;3.40;;
12567;SDS011;6349;50.904;6.136;2023-04-25T03:31:32;6.80;;;3.53;;
12567;SDS011;6349;50.904;6.136;2023-04-25T03:33:34;5.83;;;3.10;;
12567;SDS011;6349;50.904;6.136;2023-04-25T03:35:35;6.13;;;3.10;;
12567;SDS011;6349;50.904;6.136;2023-04-25T03:37:37;5.33;;;2.97;;
12567;SDS011;6349;50.904;6.136;2023-04-25T03:39:39;5.73;;;3.40;;
12567;SDS011;6349;50.904;6.136;2023-04-25T03:41:41;6.43;;;3.30;;
12567;SDS011;6349;50.904;6.136;2023-04-25T03:43:43;5.07;;;3.13;;
12567;SDS011;6349;50.904;6.136;2023-04-25T03:45:45;9.23;;;3.10;;
12567;SDS011;6349;50.904;6.136;2023-04-25T03:47:45;6.47;;;3.03;;
12567;SDS011;6349;50.904;6.136;2023-04-25T03:49:47;6.47;;;3.00;;
12567;SDS011;6349;50.904;6.136;2023-04-25T03:51:51;6.60;;;2.90;;
12567;SDS011;6349;50.904;6.136;2023-04-25T03:53:53;5.53;;;2.93;;
12567;SDS011;6349;50.904;6.136;2023-04-25T03:55:54;5.30;;;2.83;;
12567;SDS011;6349;50.904;6.136;2023-04-25T03:57:57;6.33;;;3.17;;
12567;SDS011;6349;50.904;6.136;2023-04-25T03:59:59;5.87;;;3.37;;
12567;SDS011;6349;50.904;6.136;2023-04-25T04:02:01;9.63;;;3.10;;
12567;SDS011;6349;50.904;6.136;2023-04-25T04:04:03;7.27;;;3.33;;
12567;SDS011;6349;50.904;6.136;2023-04-25T04:06:04;7.07;;;3.03;;
12567;SDS011;6349;50.904;6.136;2023-04-25T04:08:06;6.40;;;2.80;;
12567;SDS011;6349;50.904;6.136;2023-04-25T04:10:07;5.40;;;2.97;;
12567;SDS011;6349;50.904;6.136;2023-04-25T04:12:12;6.00;;;3.00;;
12567;SDS011;6349;50.904;6.136;2023-04-25T04:14:14;6.67;;;3.00;;
12567;SDS011;6349;50.904;6.136;2023-04-25T04:16:15;5.70;;;2.93;;
12567;SDS011;6349;50.904;6.136;2023-04-25T04:18:19;5.97;;;3.43;;
12567;SDS011;6349;50.904;6.136;2023-04-25T04:20:21;7.73;;;3.30;;
12567;SDS011;6349;50.904;6.136;2023-04-25T04:22:23;7.90;;;2.90;;
12567;SDS011;6349;50.904;6.136;2023-04-25T04:24:25;7.70;;;3.17;;
12567;SDS011;6349;50.904;6.136;2023-04-25T04:26:26;5.80;;;2.97;;
12567;SDS011;6349;50.904;6.136;2023-04-25T04:28:28;7.43;;;3.43;;
12567;SDS011;6349;50.904;6.136;2023-04-25T04:30:31;7.07;;;3.17;;
12567;SDS011;6349;50.904;6.136;2023-04-25T04:32:34;7.73;;;3.13;;
12567;SDS011;6349;50.904;6.136;2023-04-25T04:34:38;6.23;;;3.00;;
12567;SDS011;6349;50.904;6.136;2023-04-25T04:36:40;6.57;;;3.53;;
12567;SDS011;6349;50.904;6.136;2023-04-25T04:38:42;7.47;;;3.60;;
12567;SDS011;6349;50.904;6.136;2023-04-25T04:40:44;9.27;;;3.50;;
12567;SDS011;6349;50.904;6.136;2023-04-25T04:42:46;6.03;;;3.23;;
12567;SDS011;6349;50.904;6.136;2023-04-25T04:44:48;6.63;;;3.27;;
12567;SDS011;6349;50.904;6.136;2023-04-25T04:46:50;8.13;;;3.83;;
12567;SDS011;6349;50.904;6.136;2023-04-25T04:48:52;10.67;;;3.50;;
12567;SDS011;6349;50.904;6.136;2023-04-25T04:50:54;7.37;;;3.23;;
12567;SDS011;6349;50.904;6.136;2023-04-25T04:52:56;9.60;;;3.40;;
12567;SDS011;6349;50.904;6.136;2023-04-25T04:54:58;7.40;;;3.30;;
12567;SDS011;6349;50.904;6.136;2023-04-25T04:57:00;6.40;;;3.17;;
12567;SDS011;6349;50.904;6.136;2023-04-25T04:59:02;6.63;;;3.20;;
12567;SDS011;6349;50.904;6.136;2023-04-25T05:01:04;7.10;;;3.30;;
12567;SDS011;6349;50.904;6.136;2023-04-25T05:03:06;8.27;;;3.20;;
12567;SDS011;6349;50.904;6.136;2023-04-25T05:05:08;7.07;;;3.20;;
12567;SDS011;6349;50.904;6.136;2023-04-25T05:07:10;8.27;;;3.47;;
12567;SDS011;6349;50.904;6.136;2023-04-25T05:09:12;9.33;;;4.27;;
12567;SDS011;6349;50.904;6.136;2023-04-25T05:11:14;8.43;;;3.40;;
12567;SDS011;6349;50.904;6.136;2023-04-25T05:13:15;6.60;;;3.23;;
12567;SDS011;6349;50.904;6.136;2023-04-25T05:15:17;9.07;;;4.60;;
12567;SDS011;6349;50.904;6.136;2023-04-25T05:17:19;8.83;;;3.73;;
12567;SDS011;6349;50.904;6.136;2023-04-25T05:19:21;10.80;;;3.97;;
12567;SDS011;6349;50.904;6.136;2023-04-25T05:21:23;8.23;;;4.03;;
12567;SDS011;6349;50.904;6.136;2023-04-25T05:23:25;5.63;;;3.33;;
12567;SDS011;6349;50.904;6.136;2023-04-25T05:25:29;6.03;;;3.43;;
12567;SDS011;6349;50.904;6.136;2023-04-25T05:27:30;9.03;;;4.10;;
12567;SDS011;6349;50.904;6.136;2023-04-25T05:29:32;9.27;;;4.10;;
12567;SDS011;6349;50.904;6.136;2023-04-25T05:31:35;8.70;;;3.80;;
12567;SDS011;6349;50.904;6.136;2023-04-25T05:33:36;6.33;;;3.40;;
12567;SDS011;6349;50.904;6.136;2023-04-25T05:35:37;10.63;;;4.83;;
12567;SDS011;6349;50.904;6.136;2023-04-25T05:37:39;7.23;;;3.50;;
12567;SDS011;6349;50.904;6.136;2023-04-25T05:39:41;7.03;;;3.73;;
12567;SDS011;6349;50.904;6.136;2023-04-25T05:41:43;14.07;;;4.10;;
12567;SDS011;6349;50.904;6.136;2023-04-25T05:43:45;8.50;;;3.40;;
12567;SDS011;6349;50.904;6.136;2023-04-25T05:45:49;6.47;;;3.73;;
12567;SDS011;6349;50.904;6.136;2023-04-25T05:47:51;8.17;;;3.70;;
12567;SDS011;6349;50.904;6.136;2023-04-25T05:49:53;8.13;;;3.47;;
12567;SDS011;6349;50.904;6.136;2023-04-25T05:51:55;9.57;;;3.20;;
12567;SDS011;6349;50.904;6.136;2023-04-25T05:53:57;6.37;;;3.60;;
12567;SDS011;6349;50.904;6.136;2023-04-25T05:55:59;8.17;;;4.03;;
12567;SDS011;6349;50.904;6.136;2023-04-25T05:58:01;8.63;;;3.83;;
12567;SDS011;6349;50.904;6.136;2023-04-25T06:00:03;5.40;;;3.40;;
12567;SDS011;6349;50.904;6.136;2023-04-25T06:02:10;8.80;;;3.60;;
12567;SDS011;6349;50.904;6.136;2023-04-25T06:04:11;8.20;;;3.70;;
12567;SDS011;6349;50.904;6.136;2023-04-25T06:06:13;5.87;;;3.73;;
12567;SDS011;6349;50.904;6.136;2023-04-25T06:08:15;9.90;;;3.23;;
12567;SDS011;6349;50.904;6.136;2023-04-25T06:10:18;10.17;;;3.60;;
12567;SDS011;6349;50.904;6.136;2023-04-25T06:12:20;8.90;;;3.80;;
12567;SDS011;6349;50.904;6.136;2023-04-25T06:14:22;10.77;;;3.83;;
12567;SDS011;6349;50.904;6.136;2023-04-25T06:16:23;9.67;;;3.97;;
12567;SDS011;6349;50.904;6.136;2023-04-25T06:18:27;7.17;;;3.60;;
12567;SDS011;6349;50.904;6.136;2023-04-25T06:20:29;8.70;;;3.73;;
12567;SDS011;6349;50.904;6.136;2023-04-25T06:22:30;10.33;;;3.77;;
12567;SDS011;6349;50.904;6.136;2023-04-25T06:24:32;7.10;;;3.67;;
12567;SDS011;6349;50.904;6.136;2023-04-25T06:26:34;7.23;;;3.33;;
12567;SDS011;6349;50.904;6.136;2023-04-25T06:28:36;6.40;;;3.57;;
12567;SDS011;6349;50.904;6.136;2023-04-25T06:30:38;8.90;;;3.50;;
12567;SDS011;6349;50.904;6.136;2023-04-25T06:32:39;7.30;;;3.20;;
12567;SDS011;6349;50.904;6.136;2023-04-25T06:34:41;7.67;;;3.80;;
12567;SDS011;6349;50.904;6.136;2023-04-25T06:36:42;6.13;;;3.37;;
12567;SDS011;6349;50.904;6.136;2023-04-25T06:38:45;9.97;;;3.63;;
12567;SDS011;6349;50.904;6.136;2023-04-25T06:40:47;7.40;;;3.43;;
12567;SDS011;6349;50.904;6.136;2023-04-25T06:42:49;5.23;;;2.93;;
12567;SDS011;6349;50.904;6.136;2023-04-25T06:44:50;9.27;;;3.10;;
12567;SDS011;6349;50.904;6.136;2023-04-25T06:46:52;8.63;;;3.37;;
12567;SDS011;6349;50.904;6.136;2023-04-25T06:48:54;8.10;;;3.30;;
12567;SDS011;6349;50.904;6.136;2023-04-25T06:50:57;8.07;;;2.90;;
12567;SDS011;6349;50.904;6.136;2023-04-25T06:52:59;6.03;;;3.13;;
12567;SDS011;6349;50.904;6.136;2023-04-25T06:55:02;7.73;;;2.87;;
12567;SDS011;6349;50.904;6.136;2023-04-25T06:57:06;7.43;;;2.60;;
12567;SDS011;6349;50.904;6.136;2023-04-25T06:59:08;11.00;;;3.20;;
12567;SDS011;6349;50.904;6.136;2023-04-25T07:01:10;8.63;;;3.07;;
12567;SDS011;6349;50.904;6.136;2023-04-25T07:03:12;7.10;;;2.90;;
12567;SDS011;6349;50.904;6.136;2023-04-25T07:05:13;8.80;;;3.20;;
12567;SDS011;6349;50.904;6.136;2023-04-25T07:07:16;6.43;;;2.93;;
12567;SDS011;6349;50.904;6.136;2023-04-25T07:09:18;6.73;;;3.20;;
12567;SDS011;6349;50.904;6.136;2023-04-25T07:11:20;8.70;;;3.13;;
12567;SDS011;6349;50.904;6.136;2023-04-25T07:13:22;8.03;;;3.40;;
12567;SDS011;6349;50.904;6.136;2023-04-25T07:15:24;10.53;;;3.23;;
12567;SDS011;6349;50.904;6.136;2023-04-25T07:17:26;9.40;;;2.87;;
12567;SDS011;6349;50.904;6.136;2023-04-25T07:19:28;8.40;;;2.93;;
12567;SDS011;6349;50.904;6.136;2023-04-25T07:21:31;5.67;;;2.60;;
12567;SDS011;6349;50.904;6.136;2023-04-25T07:23:32;6.93;;;2.50;;
12567;SDS011;6349;50.904;6.136;2023-04-25T07:25:34;7.03;;;2.70;;
12567;SDS011;6349;50.904;6.136;2023-04-25T07:27:36;7.53;;;3.10;;
12567;SDS011;6349;50.904;6.136;2023-04-25T07:29:38;7.70;;;2.70;;
12567;SDS011;6349;50.904;6.136;2023-04-25T07:31:40;7.23;;;2.97;;
12567;SDS011;6349;50.904;6.136;2023-04-25T07:33:42;6.50;;;2.23;;
12567;SDS011;6349;50.904;6.136;2023-04-25T07:35:44;6.37;;;2.57;;
12567;SDS011;6349;50.904;6.136;2023-04-25T07:37:45;7.10;;;2.43;;
12567;SDS011;6349;50.904;6.136;2023-04-25T07:39:45;6.03;;;2.10;;
12567;SDS011;6349;50.904;6.136;2023-04-25T07:41:49;8.37;;;2.50;;
12567;SDS011;6349;50.904;6.136;2023-04-25T07:43:54;6.27;;;2.30;;
12567;SDS011;6349;50.904;6.136;2023-04-25T07:45:57;6.03;;;2.60;;
12567;SDS011;6349;50.904;6.136;2023-04-25T07:47:58;6.07;;;2.20;;
12567;SDS011;6349;50.904;6.136;2023-04-25T07:50:00;8.17;;;2.30;;
12567;SDS011;6349;50.904;6.136;2023-04-25T07:52:02;5.67;;;2.10;;
12567;SDS011;6349;50.904;6.136;2023-04-25T07:54:05;6.37;;;2.33;;
12567;SDS011;6349;50.904;6.136;2023-04-25T07:56:07;7.03;;;2.53;;
12567;SDS011;6349;50.904;6.136;2023-04-25T07:58:10;4.57;;;1.90;;
12567;SDS011;6349;50.904;6.136;2023-04-25T08:00:13;6.93;;;2.67;;
12567;SDS011;6349;50.904;6.136;2023-04-25T08:02:16;6.47;;;2.23;;
12567;SDS011;6349;50.904;6.136;2023-04-25T08:04:18;5.70;;;2.23;;
12567;SDS011;6349;50.904;6.136;2023-04-25T08:06:19;6.87;;;2.47;;
12567;SDS011;6349;50.904;6.136;2023-04-25T08:08:21;4.63;;;2.07;;
12567;SDS011;6349;50.904;6.136;2023-04-25T08:10:24;4.03;;;2.20;;
12567;SDS011;6349;50.904;6.136;2023-04-25T08:12:25;6.07;;;2.47;;
12567;SDS011;6349;50.904;6.136;2023-04-25T08:14:27;5.23;;;1.90;;
12567;SDS011;6349;50.904;6.136;2023-04-25T08:16:32;3.90;;;1.97;;
12567;SDS011;6349;50.904;6.136;2023-04-25T08:18:34;3.93;;;1.77;;
12567;SDS011;6349;50.904;6.136;2023-04-25T08:20:35;7.40;;;2.40;;
12567;SDS011;6349;50.904;6.136;2023-04-25T08:22:37;3.50;;;2.00;;
12567;SDS011;6349;50.904;6.136;2023-04-25T08:24:39;5.80;;;2.30;;
12567;SDS011;6349;50.904;6.136;2023-04-25T08:26:41;7.67;;;2.70;;
12567;SDS011;6349;50.904;6.136;2023-04-25T08:28:42;6.97;;;2.23;;
12567;SDS011;6349;50.904;6.136;2023-04-25T08:30:44;4.60;;;2.30;;
12567;SDS011;6349;50.904;6.136;2023-04-25T08:32:46;4.20;;;1.80;;
12567;SDS011;6349;50.904;6.136;2023-04-25T08:34:47;4.77;;;2.03;;
12567;SDS011;6349;50.904;6.136;2023-04-25T08:36:47;6.57;;;1.97;;
12567;SDS011;6349;50.904;6.136;2023-04-25T08:38:49;6.40;;;2.00;;
12567;SDS011;6349;50.904;6.136;2023-04-25T08:40:51;5.47;;;1.73;;
12567;SDS011;6349;50.904;6.136;2023-04-25T08:42:53;5.37;;;1.83;;
12567;SDS011;6349;50.904;6.136;2023-04-25T08:44:56;5.17;;;1.90;;
12567;SDS011;6349;50.904;6.136;2023-04-25T08:47:03;3.90;;;1.70;;
12567;SDS011;6349;50.904;6.136;2023-04-25T08:49:06;5.07;;;1.73;;
12567;SDS011;6349;50.904;6.136;2023-04-25T08:51:09;4.53;;;1.57;;
12567;SDS011;6349;50.904;6.136;2023-04-25T08:53:15;5.30;;;1.50;;
12567;SDS011;6349;50.904;6.136;2023-04-25T08:55:20;4.40;;;1.80;;
12567;SDS011;6349;50.904;6.136;2023-04-25T08:57:22;6.37;;;2.23;;
12567;SDS011;6349;50.904;6.136;2023-04-25T08:59:25;7.00;;;2.27;;
12567;SDS011;6349;50.904;6.136;2023-04-25T09:01:28;5.57;;;2.13;;
12567;SDS011;6349;50.904;6.136;2023-04-25T09:03:29;5.80;;;2.00;;
12567;SDS011;6349;50.904;6.136;2023-04-25T09:05:35;6.37;;;2.30;;
12567;SDS011;6349;50.904;6.136;2023-04-25T09:07:37;3.73;;;1.90;;
12567;SDS011;6349;50.904;6.136;2023-04-25T09:09:39;4.40;;;1.90;;
12567;SDS011;6349;50.904;6.136;2023-04-25T09:11:40;6.03;;;2.10;;
12567;SDS011;6349;50.904;6.136;2023-04-25T09:13:42;5.43;;;2.00;;
12567;SDS011;6349;50.904;6.136;2023-04-25T09:15:55;4.90;;;2.07;;
12567;SDS011;6349;50.904;6.136;2023-04-25T09:17:58;4.10;;;1.90;;
12567;SDS011;6349;50.904;6.136;2023-04-25T09:20:11;6.90;;;2.10;;
12567;SDS011;6349;50.904;6.136;2023-04-25T09:22:14;5.67;;;2.00;;
12567;SDS011;6349;50.904;6.136;2023-04-25T09:26:42;6.70;;;2.20;;
12567;SDS011;6349;50.904;6.136;2023-04-25T09:28:45;6.17;;;2.03;;
12567;SDS011;6349;50.904;6.136;2023-04-25T09:30:49;6.53;;;2.23;;
12567;SDS011;6349;50.904;6.136;2023-04-25T09:32:51;7.60;;;2.37;;
12567;SDS011;6349;50.904;6.136;2023-04-25T09:34:57;5.00;;;2.10;;
12567;SDS011;6349;50.904;6.136;2023-04-25T09:37:01;5.10;;;2.17;;
12567;SDS011;6349;50.904;6.136;2023-04-25T09:39:03;5.73;;;2.10;;
12567;SDS011;6349;50.904;6.136;2023-04-25T09:41:21;5.30;;;1.90;;
12567;SDS011;6349;50.904;6.136;2023-04-25T09:43:24;4.10;;;2.00;;
12567;SDS011;6349;50.904;6.136;2023-04-25T09:45:29;4.80;;;1.80;;
12567;SDS011;6349;50.904;6.136;2023-04-25T09:47:32;5.07;;;1.77;;
12567;SDS011;6349;50.904;6.136;2023-04-25T09:49:42;3.47;;;1.73;;
12567;SDS011;6349;50.904;6.136;2023-04-25T09:51:54;5.87;;;2.00;;
12567;SDS011;6349;50.904;6.136;2023-04-25T09:53:59;6.27;;;2.17;;
12567;SDS011;6349;50.904;6.136;2023-04-25T09:56:03;4.53;;;2.13;;
12567;SDS011;6349;50.904;6.136;2023-04-25T09:58:06;7.10;;;1.90;;
12567;SDS011;6349;50.904;6.136;2023-04-25T10:00:11;6.07;;;2.07;;
12567;SDS011;6349;50.904;6.136;2023-04-25T10:02:15;5.97;;;2.10;;
12567;SDS011;6349;50.904;6.136;2023-04-25T10:04:25;5.37;;;2.00;;
12567;SDS011;6349;50.904;6.136;2023-04-25T10:06:29;6.47;;;2.40;;
12567;SDS011;6349;50.904;6.136;2023-04-25T10:08:33;5.27;;;2.20;;
12567;SDS011;6349;50.904;6.136;2023-04-25T10:10:37;3.80;;;2.27;;
12567;SDS011;6349;50.904;6.136;2023-04-25T10:12:41;5.83;;;1.87;;
12567;SDS011;6349;50.904;6.136;2023-04-25T10:14:45;3.47;;;1.73;;
12567;SDS011;6349;50.904;6.136;2023-04-25T10:16:47;5.57;;;2.50;;
12567;SDS011;6349;50.904;6.136;2023-04-25T10:18:49;6.37;;;2.10;;
12567;SDS011;6349;50.904;6.136;2023-04-25T10:20:52;5.63;;;2.33;;
12567;SDS011;6349;50.904;6.136;2023-04-25T10:22:58;5.07;;;2.00;;
12567;SDS011;6349;50.904;6.136;2023-04-25T10:25:10;5.07;;;2.10;;
12567;SDS011;6349;50.904;6.136;2023-04-25T10:27:12;7.27;;;2.37;;
12567;SDS011;6349;50.904;6.136;2023-04-25T10:29:21;5.10;;;2.10;;
12567;SDS011;6349;50.904;6.136;2023-04-25T10:31:24;8.47;;;1.97;;
12567;SDS011;6349;50.904;6.136;2023-04-25T10:33:39;2.97;;;1.90;;
12567;SDS011;6349;50.904;6.136;2023-04-25T10:35:44;5.97;;;2.10;;
12567;SDS011;6349;50.904;6.136;2023-04-25T10:38:03;5.23;;;1.93;;
12567;SDS011;6349;50.904;6.136;2023-04-25T10:40:11;3.73;;;1.93;;
12567;SDS011;6349;50.904;6.136;2023-04-25T10:42:14;3.83;;;1.77;;
12567;SDS011;6349;50.904;6.136;2023-04-25T10:44:16;9.03;;;2.10;;
12567;SDS011;6349;50.904;6.136;2023-04-25T10:46:23;3.80;;;1.80;;
12567;SDS011;6349;50.904;6.136;2023-04-25T10:48:32;4.83;;;2.27;;
12567;SDS011;6349;50.904;6.136;2023-04-25T10:50:39;5.83;;;2.30;;
12567;SDS011;6349;50.904;6.136;2023-04-25T10:52:41;5.33;;;2.10;;
12567;SDS011;6349;50.904;6.136;2023-04-25T10:54:55;5.37;;;2.33;;
12567;SDS011;6349;50.904;6.136;2023-04-25T10:56:58;3.90;;;1.90;;
12567;SDS011;6349;50.904;6.136;2023-04-25T10:59:07;4.03;;;1.90;;
12567;SDS011;6349;50.904;6.136;2023-04-25T11:01:11;4.77;;;2.20;;
12567;SDS011;6349;50.904;6.136;2023-04-25T11:03:15;6.33;;;2.30;;
12567;SDS011;6349;50.904;6.136;2023-04-25T11:05:22;5.73;;;2.40;;
12567;SDS011;6349;50.904;6.136;2023-04-25T11:07:34;4.57;;;2.20;;
12567;SDS011;6349;50.904;6.136;2023-04-25T11:09:49;4.10;;;1.87;;
12567;SDS011;6349;50.904;6.136;2023-04-25T11:11:57;4.03;;;1.80;;
12567;SDS011;6349;50.904;6.136;2023-04-25T11:14:00;6.30;;;2.60;;
12567;SDS011;6349;50.904;6.136;2023-04-25T11:16:02;5.50;;;1.97;;
12567;SDS011;6349;50.904;6.136;2023-04-25T11:18:03;4.60;;;2.00;;
12567;SDS011;6349;50.904;6.136;2023-04-25T11:20:06;3.47;;;1.77;;
12567;SDS011;6349;50.904;6.136;2023-04-25T11:22:12;4.13;;;1.90;;
12567;SDS011;6349;50.904;6.136;2023-04-25T11:24:15;4.43;;;1.70;;
12567;SDS011;6349;50.904;6.136;2023-04-25T11:26:19;3.60;;;1.63;;
12567;SDS011;6349;50.904;6.136;2023-04-25T11:28:22;3.67;;;1.90;;
12567;SDS011;6349;50.904;6.136;2023-04-25T11:30:24;6.37;;;2.00;;
12567;SDS011;6349;50.904;6.136;2023-04-25T11:32:27;4.20;;;1.93;;
12567;SDS011;6349;50.904;6.136;2023-04-25T11:34:32;4.23;;;2.10;;
12567;SDS011;6349;50.904;6.136;2023-04-25T11:36:35;3.13;;;1.63;;
12567;SDS011;6349;50.904;6.136;2023-04-25T11:38:39;2.83;;;1.83;;
12567;SDS011;6349;50.904;6.136;2023-04-25T11:40:41;3.87;;;1.80;;
12567;SDS011;6349;50.904;6.136;2023-04-25T11:42:46;4.60;;;2.03;;
12567;SDS011;6349;50.904;6.136;2023-04-25T11:44:49;5.53;;;1.80;;
12567;SDS011;6349;50.904;6.136;2023-04-25T11:46:51;7.13;;;2.00;;
12567;SDS011;6349;50.904;6.136;2023-04-25T11:48:53;4.37;;;1.73;;
12567;SDS011;6349;50.904;6.136;2023-04-25T11:50:59;4.67;;;1.60;;
12567;SDS011;6349;50.904;6.136;2023-04-25T11:53:01;4.13;;;1.60;;
12567;SDS011;6349;50.904;6.136;2023-04-25T11:55:24;3.63;;;1.40;;
12567;SDS011;6349;50.904;6.136;2023-04-25T11:57:25;4.33;;;1.60;;
12567;SDS011;6349;50.904;6.136;2023-04-25T11:59:26;3.07;;;1.50;;
12567;SDS011;6349;50.904;6.136;2023-04-25T12:01:29;3.70;;;1.90;;
12567;SDS011;6349;50.904;6.136;2023-04-25T12:03:37;2.70;;;1.37;;
12567;SDS011;6349;50.904;6.136;2023-04-25T12:05:47;2.60;;;1.30;;
12567;SDS011;6349;50.904;6.136;2023-04-25T12:07:48;3.93;;;1.40;;
12567;SDS011;6349;50.904;6.136;2023-04-25T12:09:51;3.07;;;1.37;;
12567;SDS011;6349;50.904;6.136;2023-04-25T12:11:55;6.43;;;1.70;;
12567;SDS011;6349;50.904;6.136;2023-04-25T12:14:04;2.40;;;1.23;;
12567;SDS011;6349;50.904;6.136;2023-04-25T12:16:06;3.63;;;1.50;;
12567;SDS011;6349;50.904;6.136;2023-04-25T12:18:08;3.70;;;1.67;;
12567;SDS011;6349;50.904;6.136;2023-04-25T12:20:12;5.00;;;1.30;;
12567;SDS011;6349;50.904;6.136;2023-04-25T12:22:22;2.60;;;1.50;;
12567;SDS011;6349;50.904;6.136;2023-04-25T12:24:26;5.10;;;1.77;;
12567;SDS011;6349;50.904;6.136;2023-04-25T12:26:45;4.20;;;1.77;;
12567;SDS011;6349;50.904;6.136;2023-04-25T12:28:50;4.03;;;1.70;;
12567;SDS011;6349;50.904;6.136;2023-04-25T12:30:52;4.37;;;1.70;;
12567;SDS011;6349;50.904;6.136;2023-04-25T12:32:54;4.03;;;1.60;;
12567;SDS011;6349;50.904;6.136;2023-04-25T12:34:56;4.90;;;1.60;;